Overview Statistics Trail Chart Weather Telemetry Raw packets
 

This is the latest recevied weather packets stored in our database for station/object CT1EDG-13. If no packets are shown the sender has not sent any weather packets the latest 10 day(s).

<< 9 10 11 12 13 14 15 >>
Time Temp. Humidity Pressure Rain* Wind** Luminosity Snow
1788545626 33.89° C 62% 1008.1 hPa 0 mm - - -
1788545624 33.89° C 62% 1008.1 hPa 0 mm - - -
1788545026 33.89° C 59% 1008.1 hPa 0 mm - - -
1788545024 33.89° C 59% 1008.1 hPa 0 mm - - -
1788544425 32.22° C 65% 1008.3 hPa 0 mm - - -
1788544424 32.22° C 65% 1008.3 hPa 0 mm - - -
1788543824 32.22° C 64% 1008.4 hPa 0 mm - - -
1788543823 32.22° C 64% 1008.4 hPa 0 mm - - -
1788543225 33.33° C 58% 1008.4 hPa 0 mm - - -
1788543223 33.33° C 58% 1008.4 hPa 0 mm - - -
1788542624 32.78° C 59% 1008.4 hPa 0 mm - - -
1788542623 32.78° C 59% 1008.4 hPa 0 mm - - -
1788542024 32.78° C 55% 1008.6 hPa 0 mm - - -
1788542023 32.78° C 55% 1008.6 hPa 0 mm - - -
1788541426 32.78° C 54% 1008.7 hPa 0 mm - - -
1788541423 32.78° C 54% 1008.7 hPa 0 mm - - -
1788540826 32.78° C 54% 1008.6 hPa 0 mm - - -
1788540823 32.78° C 54% 1008.6 hPa 0 mm - - -
1788540224 31.11° C 58% 1008.7 hPa 0 mm - - -
1788540223 31.11° C 58% 1008.7 hPa 0 mm - - -
1788539623 31.67° C 51% 1008.7 hPa 0 mm - - -
1788539024 31.11° C 55% 1008.8 hPa 0 mm - - -
1788539023 31.11° C 55% 1008.8 hPa 0 mm - - -
1788538424 31.11° C 61% 1008.8 hPa 0 mm - - -
1788538423 31.11° C 61% 1008.8 hPa 0 mm - - -

* Rain latest hour (hover to see other rain measurements)
** Current wind speed in m/s (hover to see current wind gust speed)